Time;durP1;ratioP1;P1;durP2;ratioP2;P2;SDS_P1;SDS_P2;PMS_P1;PMS_P2;Temp;Humidity;BMP_temperature;BMP_pressure;BME280_temperature;BME280_humidity;BME280_pressure;Samples;Min_cycle;Max_cycle;Signal;HPM_P1;HPM_P2
2022/08/05 00:01:44;;;;;;;3.53;2.70;;;20.20;99.90;;;;;;5111351;27;20461;-86
2022/08/05 00:04:11;;;;;;;2.80;2.13;;;20.20;99.90;;;;;;5115838;27;20469;-86
2022/08/05 00:06:38;;;;;;;1.90;1.80;;;20.20;99.90;;;;;;5112845;27;20457;-85
2022/08/05 00:09:06;;;;;;;4.40;1.77;;;20.10;99.90;;;;;;5115370;27;20592;-85
2022/08/05 00:11:33;;;;;;;2.30;1.93;;;20.00;99.90;;;;;;5114370;27;20936;-85
2022/08/05 00:14:00;;;;;;;1.23;1.23;;;20.00;99.90;;;;;;5109593;27;20489;-85
2022/08/05 00:16:28;;;;;;;1.93;1.30;;;19.90;99.90;;;;;;5114837;27;20495;-85
2022/08/05 00:18:55;;;;;;;3.27;2.00;;;19.90;99.90;;;;;;5109743;27;20506;-85
2022/08/05 00:21:22;;;;;;;2.07;1.97;;;19.80;99.90;;;;;;5115305;27;20458;-85
2022/08/05 00:23:49;;;;;;;2.13;2.03;;;19.80;99.90;;;;;;5111100;27;20465;-86
2022/08/05 00:26:18;;;;;;;1.50;1.40;;;19.80;99.90;;;;;;5116434;27;20481;-86
2022/08/05 00:28:45;;;;;;;1.87;1.77;;;19.80;99.90;;;;;;5112420;27;20446;-86
2022/08/05 00:31:13;;;;;;;2.30;1.70;;;19.70;99.90;;;;;;5115190;27;20837;-86
2022/08/05 00:33:41;;;;;;;1.80;1.70;;;19.70;99.90;;;;;;5112876;28;20705;-87
2022/08/05 00:36:08;;;;;;;1.93;1.40;;;19.60;99.90;;;;;;5115656;28;20460;-86
2022/08/05 00:38:37;;;;;;;1.87;1.77;;;19.60;99.90;;;;;;5114772;28;20805;-86
2022/08/05 00:41:06;;;;;;;1.57;1.47;;;19.60;99.90;;;;;;5115727;28;20445;-86
2022/08/05 00:43:33;;;;;;;2.70;1.63;;;19.60;99.90;;;;;;5114581;28;20466;-86
2022/08/05 00:46:00;;;;;;;1.70;1.60;;;19.60;99.90;;;;;;5113393;28;20528;-86
2022/08/05 00:48:27;;;;;;;2.00;1.50;;;19.50;99.90;;;;;;5111178;28;20460;-86
2022/08/05 00:50:56;;;;;;;1.37;1.27;;;19.40;99.90;;;;;;5110926;28;20469;-86
2022/08/05 00:53:24;;;;;;;2.10;2.00;;;19.40;99.90;;;;;;5112197;27;20602;-86
2022/08/05 00:55:51;;;;;;;3.90;2.13;;;19.40;99.90;;;;;;5113231;27;20530;-86
2022/08/05 00:58:19;;;;;;;2.53;2.30;;;19.40;99.90;;;;;;5112685;27;20521;-86
2022/08/05 01:00:47;;;;;;;1.57;1.47;;;19.30;99.90;;;;;;5114875;27;20468;-87
2022/08/05 01:03:14;;;;;;;4.20;2.10;;;19.30;99.90;;;;;;5116740;27;20533;-86
2022/08/05 01:05:41;;;;;;;1.70;1.60;;;19.30;99.90;;;;;;5112810;27;21039;-86
2022/08/05 01:08:09;;;;;;;1.93;1.83;;;19.30;99.90;;;;;;5116605;27;20562;-86
2022/08/05 01:10:41;;;;;;;2.13;1.73;;;19.30;99.90;;;;;;5119671;27;20468;-86
2022/08/05 01:13:20;;;;;;;1.70;1.60;;;19.30;99.90;;;;;;5117816;27;20558;-86
2022/08/05 01:15:54;;;;;;;3.53;2.07;;;19.20;99.90;;;;;;5112372;27;20975;-86
2022/08/05 01:18:25;;;;;;;3.33;1.73;;;19.20;99.90;;;;;;5116305;27;20854;-86
2022/08/05 01:21:03;;;;;;;2.23;2.03;;;19.20;99.90;;;;;;5112498;27;20460;-86
2022/08/05 01:23:44;;;;;;;17.37;2.23;;;19.10;99.90;;;;;;5113395;27;20813;-86
2022/08/05 01:26:31;;;;;;;1.80;1.70;;;19.00;99.90;;;;;;5112814;27;20480;-86
2022/08/05 01:29:03;;;;;;;2.07;1.90;;;19.00;99.90;;;;;;5113597;27;20468;-86
2022/08/05 01:31:37;;;;;;;1.63;1.53;;;18.90;99.90;;;;;;5112192;27;20535;-86
2022/08/05 01:34:09;;;;;;;1.87;1.77;;;19.00;99.90;;;;;;5114458;27;20491;-86
2022/08/05 01:36:42;;;;;;;2.37;2.27;;;18.90;99.90;;;;;;5116653;27;20539;-86
2022/08/05 01:39:11;;;;;;;2.30;1.47;;;18.80;99.90;;;;;;5117266;27;20471;-86
2022/08/05 01:41:39;;;;;;;3.83;2.20;;;18.90;99.90;;;;;;5116576;27;20460;-86
2022/08/05 01:44:10;;;;;;;2.80;2.60;;;18.90;99.90;;;;;;5113412;27;20459;-86
2022/08/05 01:46:39;;;;;;;1.83;1.63;;;18.90;99.90;;;;;;5115627;27;20460;-86
2022/08/05 01:49:08;;;;;;;1.57;1.47;;;18.90;99.90;;;;;;5118183;27;20462;-86
2022/08/05 01:51:36;;;;;;;3.07;1.93;;;18.90;99.90;;;;;;5118082;27;21998;-86
2022/08/05 01:54:07;;;;;;;1.40;1.13;;;18.90;99.90;;;;;;5113001;27;20463;-86
2022/08/05 01:56:40;;;;;;;1.70;1.60;;;18.90;99.90;;;;;;5113279;27;20473;-86
2022/08/05 01:59:16;;;;;;;3.00;1.50;;;18.80;99.90;;;;;;5117851;27;20894;-86
2022/08/05 02:01:46;;;;;;;2.37;2.13;;;18.80;99.90;;;;;;5109598;27;20936;-86
2022/08/05 02:04:16;;;;;;;1.50;1.40;;;18.90;99.90;;;;;;5117706;27;20457;-85
2022/08/05 02:06:43;;;;;;;2.33;2.23;;;18.90;99.90;;;;;;5108389;27;20861;-86
2022/08/05 02:09:10;;;;;;;1.53;1.43;;;18.80;99.90;;;;;;5115749;27;20457;-86
2022/08/05 02:11:44;;;;;;;1.63;1.53;;;18.80;99.90;;;;;;5114034;27;20540;-86
2022/08/05 02:14:17;;;;;;;1.67;1.20;;;18.70;99.90;;;;;;5114833;27;20453;-85
2022/08/05 02:16:47;;;;;;;2.03;1.67;;;18.70;99.90;;;;;;5113398;27;20521;-86
2022/08/05 02:19:20;;;;;;;2.40;2.20;;;18.70;99.90;;;;;;5116105;27;20555;-85
2022/08/05 02:21:52;;;;;;;1.70;1.53;;;18.60;99.90;;;;;;5115236;27;20510;-85
2022/08/05 02:24:23;;;;;;;3.17;1.53;;;18.70;99.90;;;;;;5116769;27;20469;-86
2022/08/05 02:26:54;;;;;;;2.07;1.97;;;18.60;99.90;;;;;;5110914;27;20464;-86
2022/08/05 02:29:24;;;;;;;1.60;1.50;;;18.70;99.90;;;;;;5113694;27;20470;-86
2022/08/05 02:31:57;;;;;;;6.93;2.50;;;18.70;99.90;;;;;;5108002;27;20467;-86
2022/08/05 02:34:26;;;;;;;1.57;1.47;;;18.80;99.90;;;;;;5114716;27;20509;-86
2022/08/05 02:36:57;;;;;;;2.53;2.33;;;18.90;99.90;;;;;;5111942;27;20543;-86
2022/08/05 02:39:27;;;;;;;2.67;1.83;;;18.90;99.90;;;;;;5115270;27;20458;-86
2022/08/05 02:41:57;;;;;;;3.40;3.17;;;19.00;99.90;;;;;;5114128;27;20571;-85
2022/08/05 02:44:27;;;;;;;2.77;2.57;;;19.00;99.90;;;;;;5113012;27;20455;-86
2022/08/05 02:46:58;;;;;;;2.03;1.90;;;18.90;99.90;;;;;;5109185;27;21163;-85
2022/08/05 02:49:27;;;;;;;1.47;1.37;;;18.80;99.90;;;;;;5111736;27;20472;-86
2022/08/05 02:51:55;;;;;;;5.37;2.40;;;18.90;99.90;;;;;;5114182;27;20467;-85
2022/08/05 02:54:24;;;;;;;2.37;2.17;;;18.80;99.90;;;;;;5112439;27;20584;-86
2022/08/05 02:56:52;;;;;;;2.90;2.57;;;18.80;99.90;;;;;;5114277;27;20460;-85
2022/08/05 02:59:20;;;;;;;2.57;2.37;;;18.80;99.90;;;;;;5114046;27;20521;-85
2022/08/05 03:01:50;;;;;;;2.00;1.90;;;18.80;99.90;;;;;;5110763;27;21118;-85
2022/08/05 03:04:19;;;;;;;2.17;2.00;;;18.60;99.90;;;;;;5113216;27;20469;-85
2022/08/05 03:06:46;;;;;;;1.90;1.80;;;18.70;99.90;;;;;;5113283;27;20956;-85
2022/08/05 03:09:14;;;;;;;2.17;2.07;;;18.70;99.90;;;;;;5113198;27;20465;-85
2022/08/05 03:11:42;;;;;;;2.97;2.30;;;18.60;99.90;;;;;;5112491;27;20477;-85
2022/08/05 03:14:10;;;;;;;2.30;2.10;;;18.60;99.90;;;;;;5112239;27;20833;-85
2022/08/05 03:16:37;;;;;;;2.63;2.33;;;18.50;99.90;;;;;;5110279;27;20541;-86
2022/08/05 03:19:06;;;;;;;1.97;1.87;;;18.30;99.90;;;;;;5114305;27;21011;-86
2022/08/05 03:21:33;;;;;;;2.00;1.80;;;18.20;99.90;;;;;;5113297;27;20473;-85
2022/08/05 03:24:00;;;;;;;1.97;1.80;;;18.20;99.90;;;;;;5107967;27;20457;-85
2022/08/05 03:26:28;;;;;;;2.13;1.83;;;18.20;99.90;;;;;;5114797;27;20479;-85
2022/08/05 03:28:55;;;;;;;1.80;1.20;;;18.10;99.90;;;;;;5113366;27;20544;-86
2022/08/05 03:31:22;;;;;;;2.57;2.30;;;18.20;99.90;;;;;;5117229;27;20523;-85
2022/08/05 03:33:49;;;;;;;3.13;2.83;;;18.20;99.90;;;;;;5113633;27;20459;-85
2022/08/05 03:36:18;;;;;;;3.07;2.00;;;18.30;99.90;;;;;;5112053;27;20476;-85
2022/08/05 03:38:45;;;;;;;2.00;1.90;;;18.20;99.90;;;;;;5110222;27;20471;-85
2022/08/05 03:41:12;;;;;;;2.97;2.30;;;18.10;99.90;;;;;;5111165;27;20458;-85
2022/08/05 03:43:39;;;;;;;3.60;2.87;;;18.10;99.90;;;;;;5115409;27;20509;-86
2022/08/05 03:46:07;;;;;;;2.50;1.93;;;18.20;99.90;;;;;;5113280;27;20467;-86
2022/08/05 03:48:34;;;;;;;2.43;2.23;;;18.20;99.90;;;;;;5112401;27;20530;-85
2022/08/05 03:51:08;;;;;;;4.30;1.63;;;18.30;99.90;;;;;;5112316;27;20471;-86
2022/08/05 03:53:41;;;;;;;1.80;1.70;;;18.20;99.90;;;;;;5110765;27;20867;-85
2022/08/05 03:56:16;;;;;;;4.43;2.47;;;18.40;99.90;;;;;;5112372;27;20489;-85
2022/08/05 03:58:46;;;;;;;2.43;1.93;;;18.40;99.90;;;;;;5115147;27;20468;-85
2022/08/05 04:01:17;;;;;;;3.87;2.30;;;18.50;99.90;;;;;;5111669;27;20451;-85
2022/08/05 04:03:48;;;;;;;2.20;2.10;;;18.50;99.90;;;;;;5111977;27;20464;-85
2022/08/05 04:06:17;;;;;;;2.47;2.27;;;18.40;99.90;;;;;;5110257;27;20560;-85
2022/08/05 04:08:47;;;;;;;2.03;1.93;;;18.40;99.90;;;;;;5115251;27;20457;-85
2022/08/05 04:11:15;;;;;;;4.70;2.47;;;18.40;99.90;;;;;;5113113;27;20469;-85
2022/08/05 04:13:42;;;;;;;1.90;1.80;;;18.40;99.90;;;;;;5113276;27;20910;-85
2022/08/05 04:16:09;;;;;;;2.00;1.80;;;18.40;99.90;;;;;;5116230;27;20540;-85
2022/08/05 04:18:37;;;;;;;2.60;2.30;;;18.50;99.90;;;;;;5114559;27;20849;-85
2022/08/05 04:21:05;;;;;;;1.07;1.07;;;18.50;99.90;;;;;;5109498;27;20470;-85
2022/08/05 04:23:35;;;;;;;2.53;2.33;;;18.50;99.90;;;;;;5109924;27;20515;-86
2022/08/05 04:26:04;;;;;;;2.57;2.37;;;18.60;99.90;;;;;;5107808;27;20479;-85
2022/08/05 04:28:31;;;;;;;2.10;2.00;;;18.90;99.90;;;;;;5114317;27;20444;-85
2022/08/05 04:30:59;;;;;;;3.00;2.70;;;18.80;99.90;;;;;;5105681;27;20789;-85
2022/08/05 04:33:26;;;;;;;3.10;2.90;;;18.70;99.90;;;;;;5113351;27;20959;-85
2022/08/05 04:35:53;;;;;;;1.90;1.47;;;18.80;99.90;;;;;;5111875;28;20872;-85
2022/08/05 04:38:20;;;;;;;3.00;2.37;;;18.80;99.90;;;;;;5113781;28;20467;-85
2022/08/05 04:40:48;;;;;;;2.57;2.37;;;18.90;99.90;;;;;;5112164;28;20472;-86
2022/08/05 04:43:16;;;;;;;3.13;2.17;;;18.90;99.90;;;;;;5111799;28;20560;-85
2022/08/05 04:45:43;;;;;;;2.00;1.90;;;19.10;99.90;;;;;;5113696;28;20458;-85
2022/08/05 04:48:12;;;;;;;1.93;1.83;;;19.20;99.90;;;;;;5107633;28;20520;-85
2022/08/05 04:50:40;;;;;;;2.13;1.93;;;19.30;99.90;;;;;;5107363;28;20450;-85
2022/08/05 04:53:07;;;;;;;2.30;2.20;;;19.30;99.90;;;;;;5126901;28;20454;-85
2022/08/05 04:55:34;;;;;;;2.50;2.30;;;19.40;99.90;;;;;;5108738;28;20485;-85
2022/08/05 04:58:01;;;;;;;2.97;2.77;;;19.40;99.90;;;;;;5103218;28;20470;-85
2022/08/05 05:00:29;;;;;;;2.90;2.70;;;19.50;99.90;;;;;;5106400;28;20458;-84
2022/08/05 05:02:56;;;;;;;1.93;1.83;;;19.50;99.90;;;;;;5109243;28;20782;-85
2022/08/05 05:05:23;;;;;;;3.23;3.00;;;19.50;99.90;;;;;;5105931;28;20465;-85
2022/08/05 05:07:50;;;;;;;2.40;2.20;;;19.60;99.90;;;;;;5119035;28;20516;-85
2022/08/05 05:10:17;;;;;;;3.23;2.93;;;19.60;99.90;;;;;;5106142;28;20469;-86
2022/08/05 05:12:44;;;;;;;2.10;2.00;;;19.70;99.90;;;;;;5120447;28;20459;-85
2022/08/05 05:15:11;;;;;;;4.07;2.60;;;19.80;99.90;;;;;;5112588;28;20476;-84
2022/08/05 05:17:42;;;;;;;2.00;1.87;;;19.90;99.90;;;;;;5111395;28;20902;-85
2022/08/05 05:20:11;;;;;;;2.23;2.13;;;19.90;99.90;;;;;;5110512;28;21093;-85
2022/08/05 05:22:39;;;;;;;4.13;2.20;;;20.00;99.90;;;;;;5113865;28;20463;-85
2022/08/05 05:25:08;;;;;;;3.23;2.13;;;20.10;99.90;;;;;;5111112;28;20972;-84
2022/08/05 05:27:36;;;;;;;6.50;3.30;;;20.20;99.90;;;;;;5110847;28;20525;-85
2022/08/05 05:30:04;;;;;;;2.53;2.40;;;20.20;99.90;;;;;;5107127;28;20454;-85
2022/08/05 05:32:31;;;;;;;3.30;2.40;;;20.10;99.90;;;;;;5111208;28;20459;-85
2022/08/05 05:34:59;;;;;;;3.07;2.80;;;20.20;99.90;;;;;;5105879;28;20465;-85
2022/08/05 05:37:26;;;;;;;2.40;2.20;;;20.30;99.90;;;;;;5105394;28;20483;-85
2022/08/05 05:39:53;;;;;;;4.20;3.50;;;20.30;99.90;;;;;;5108894;27;20780;-85
2022/08/05 05:42:20;;;;;;;3.13;2.93;;;20.50;99.90;;;;;;5117686;27;20469;-85
2022/08/05 05:44:47;;;;;;;2.73;2.57;;;20.50;99.90;;;;;;5111945;27;20454;-85
2022/08/05 05:47:14;;;;;;;2.80;2.70;;;20.50;99.90;;;;;;5112797;27;21008;-85
2022/08/05 05:49:41;;;;;;;3.67;3.17;;;20.50;99.90;;;;;;5110531;27;20472;-85
2022/08/05 05:52:10;;;;;;;3.27;3.03;;;20.70;99.90;;;;;;5111934;27;20908;-85
2022/08/05 05:54:36;;;;;;;4.50;2.47;;;20.90;99.90;;;;;;5111177;27;20468;-85
2022/08/05 05:57:04;;;;;;;1.67;1.57;;;21.10;99.90;;;;;;5108791;27;20496;-85
2022/08/05 05:59:31;;;;;;;1.93;1.80;;;21.20;99.90;;;;;;5115307;27;20471;-85
2022/08/05 06:01:58;;;;;;;1.83;1.73;;;21.20;99.90;;;;;;5107763;27;20592;-85
2022/08/05 06:04:25;;;;;;;2.50;2.40;;;21.30;99.90;;;;;;5112160;27;20480;-85
2022/08/05 06:06:52;;;;;;;4.37;2.90;;;21.40;99.90;;;;;;5107204;27;20465;-85
2022/08/05 06:09:20;;;;;;;3.23;3.03;;;21.50;99.90;;;;;;5109649;27;20474;-84
2022/08/05 06:11:47;;;;;;;2.63;2.00;;;21.70;99.90;;;;;;5106381;27;20458;-85
2022/08/05 06:14:14;;;;;;;2.43;2.23;;;21.90;99.90;;;;;;5114247;27;20839;-85
2022/08/05 06:16:41;;;;;;;3.00;2.70;;;22.00;99.90;;;;;;5111720;27;20550;-85
2022/08/05 06:19:08;;;;;;;3.10;2.90;;;22.20;99.90;;;;;;5107199;27;20461;-84
2022/08/05 06:21:36;;;;;;;4.47;3.30;;;22.30;99.90;;;;;;5110528;27;21105;-83
2022/08/05 06:24:04;;;;;;;3.17;3.00;;;22.40;99.90;;;;;;5110083;27;20470;-83
2022/08/05 06:26:32;;;;;;;3.00;2.80;;;22.50;99.90;;;;;;5115913;27;20453;-83
2022/08/05 06:28:59;;;;;;;2.77;2.57;;;22.60;99.90;;;;;;5112786;27;20460;-83
2022/08/05 06:31:26;;;;;;;3.90;3.60;;;22.80;99.90;;;;;;5109553;27;20469;-82
2022/08/05 06:33:53;;;;;;;3.10;2.90;;;22.80;99.90;;;;;;5101927;27;20796;-82
2022/08/05 06:36:20;;;;;;;4.00;3.70;;;22.80;99.90;;;;;;5111164;27;20972;-82
2022/08/05 06:38:49;;;;;;;4.87;3.20;;;22.90;99.90;;;;;;5111532;27;20465;-83
2022/08/05 06:41:16;;;;;;;5.67;3.90;;;23.00;99.90;;;;;;5109187;27;20465;-82
2022/08/05 06:43:44;;;;;;;4.40;4.10;;;23.00;99.90;;;;;;5106158;27;20457;-82
2022/08/05 06:46:11;;;;;;;3.70;3.40;;;23.30;99.90;;;;;;5104424;27;20537;-83
2022/08/05 06:48:38;;;;;;;3.23;3.03;;;23.60;99.90;;;;;;5114868;27;20449;-83
2022/08/05 06:51:05;;;;;;;3.77;3.47;;;23.70;99.90;;;;;;5112760;27;20523;-83
2022/08/05 06:53:33;;;;;;;4.43;4.13;;;23.60;99.90;;;;;;5109975;27;20461;-84
2022/08/05 06:56:02;;;;;;;4.90;4.50;;;23.80;99.90;;;;;;5105031;28;20485;-83
2022/08/05 06:58:30;;;;;;;3.30;3.10;;;23.90;99.90;;;;;;5114085;27;20450;-83
2022/08/05 07:01:00;;;;;;;3.43;3.20;;;23.90;99.90;;;;;;5102708;27;20470;-84
2022/08/05 07:03:27;;;;;;;4.17;3.97;;;24.00;99.90;;;;;;5112906;27;20945;-84
2022/08/05 07:05:54;;;;;;;3.70;2.23;;;24.20;99.90;;;;;;5102701;27;21150;-84
2022/08/05 07:08:22;;;;;;;4.20;3.90;;;24.30;99.90;;;;;;5103325;27;20531;-84
2022/08/05 07:10:49;;;;;;;3.67;3.47;;;24.60;99.90;;;;;;5108958;27;20525;-84
2022/08/05 07:18:46;;;;;;;3.80;3.50;;;25.20;99.90;;;;;;5114184;27;20468;-84
2022/08/05 07:21:13;;;;;;;3.13;2.93;;;25.00;99.90;;;;;;5107931;27;20445;-85
2022/08/05 07:23:40;;;;;;;2.93;2.70;;;25.20;99.90;;;;;;5111796;27;20830;-84
2022/08/05 07:26:07;;;;;;;4.53;3.33;;;25.30;99.90;;;;;;5104527;27;20486;-85
2022/08/05 07:28:34;;;;;;;3.77;3.40;;;25.20;99.90;;;;;;5105441;27;20477;-85
2022/08/05 07:31:03;;;;;;;2.90;2.70;;;25.20;99.90;;;;;;5108149;27;20977;-85
2022/08/05 07:33:30;;;;;;;4.53;4.23;;;25.40;99.90;;;;;;5112052;27;20871;-84
2022/08/05 07:35:57;;;;;;;3.07;2.77;;;25.40;99.90;;;;;;5107029;27;20470;-85
2022/08/05 07:38:24;;;;;;;3.07;2.80;;;25.50;99.90;;;;;;5112851;27;20457;-84
2022/08/05 07:40:51;;;;;;;4.73;4.43;;;25.70;99.90;;;;;;5111559;27;20446;-86
2022/08/05 07:43:18;;;;;;;3.10;2.90;;;25.90;99.90;;;;;;5113384;27;20530;-86
2022/08/05 07:45:45;;;;;;;3.97;3.63;;;25.90;99.90;;;;;;5110632;27;20523;-86
2022/08/05 07:48:13;;;;;;;3.80;3.50;;;26.10;99.20;;;;;;5108324;27;20454;-86
2022/08/05 07:50:40;;;;;;;4.27;3.37;;;26.20;99.90;;;;;;5121405;27;20469;-86
2022/08/05 07:53:07;;;;;;;4.00;3.70;;;26.00;99.40;;;;;;5111585;27;20910;-86
2022/08/05 07:55:34;;;;;;;4.03;3.73;;;26.20;99.30;;;;;;5114533;27;20468;-86
2022/08/05 07:58:01;;;;;;;3.27;3.07;;;26.30;99.90;;;;;;5109021;27;20593;-86
2022/08/05 08:00:28;;;;;;;5.80;4.20;;;26.20;99.10;;;;;;5114406;27;20451;-86
2022/08/05 08:02:56;;;;;;;3.70;3.40;;;26.20;99.20;;;;;;5110772;27;20533;-86
2022/08/05 08:05:25;;;;;;;3.37;3.17;;;26.50;99.60;;;;;;5105296;27;20465;-86
2022/08/05 08:07:54;;;;;;;3.77;3.57;;;26.70;98.40;;;;;;5107125;27;20549;-86
2022/08/05 08:10:21;;;;;;;4.00;3.60;;;26.80;97.80;;;;;;5106025;27;20564;-86
2022/08/05 08:12:49;;;;;;;4.30;3.97;;;26.80;98.50;;;;;;5110261;27;20480;-86
2022/08/05 08:15:16;;;;;;;3.40;3.20;;;26.90;98.70;;;;;;5107231;27;21548;-86
2022/08/05 08:17:44;;;;;;;3.43;3.33;;;27.30;98.40;;;;;;5111816;27;20477;-86
2022/08/05 08:20:11;;;;;;;4.27;3.97;;;27.20;98.30;;;;;;5105006;27;20955;-86
2022/08/05 08:22:40;;;;;;;4.10;3.90;;;27.30;96.70;;;;;;5107335;27;20530;-86
2022/08/05 08:25:09;;;;;;;3.60;3.40;;;27.50;96.20;;;;;;5107618;27;21000;-86
2022/08/05 08:27:36;;;;;;;3.60;3.30;;;27.60;96.40;;;;;;5103763;27;20466;-86
2022/08/05 08:30:04;;;;;;;3.97;3.77;;;27.60;96.40;;;;;;5110510;27;20858;-85
2022/08/05 08:32:34;;;;;;;4.77;4.27;;;27.70;96.20;;;;;;5108567;27;20476;-86
2022/08/05 08:35:01;;;;;;;5.37;5.03;;;27.80;96.10;;;;;;5108162;28;21183;-86
2022/08/05 08:37:28;;;;;;;3.13;2.93;;;27.90;97.00;;;;;;5114388;28;20557;-85
2022/08/05 08:39:57;;;;;;;4.50;4.00;;;27.80;95.30;;;;;;5103793;28;20466;-85
2022/08/05 08:42:25;;;;;;;3.53;3.33;;;27.90;95.90;;;;;;5117590;28;20445;-85
2022/08/05 08:44:54;;;;;;;3.83;3.60;;;28.10;95.30;;;;;;5110432;28;20598;-86
2022/08/05 08:47:24;;;;;;;3.10;2.97;;;28.30;95.50;;;;;;5108756;28;20521;-86
2022/08/05 08:49:53;;;;;;;4.43;4.13;;;28.30;94.40;;;;;;5109205;28;20487;-85
2022/08/05 08:52:23;;;;;;;3.33;3.13;;;28.00;95.00;;;;;;5117762;28;20441;-86
2022/08/05 08:54:52;;;;;;;4.47;3.63;;;28.10;96.00;;;;;;5105205;28;20458;-85
2022/08/05 08:57:22;;;;;;;4.13;3.83;;;28.20;95.20;;;;;;5115142;28;20489;-87
2022/08/05 08:59:49;;;;;;;3.77;3.47;;;28.30;95.40;;;;;;5106196;28;20461;-85
2022/08/05 09:02:19;;;;;;;5.60;3.37;;;28.40;94.80;;;;;;5119322;28;20882;-86
2022/08/05 09:04:46;;;;;;;6.90;3.53;;;28.60;94.30;;;;;;5107048;28;20480;-87
2022/08/05 09:07:13;;;;;;;3.33;3.13;;;28.70;93.50;;;;;;5103972;28;20454;-86
2022/08/05 09:09:42;;;;;;;3.23;3.03;;;28.70;93.70;;;;;;5104774;28;21441;-87
2022/08/05 09:12:10;;;;;;;3.67;3.43;;;28.60;94.40;;;;;;5101829;28;20457;-87
2022/08/05 09:14:39;;;;;;;4.40;4.10;;;28.60;95.30;;;;;;5117128;28;20464;-87
2022/08/05 09:17:07;;;;;;;3.90;3.70;;;28.90;95.20;;;;;;5111129;27;20480;-87
2022/08/05 09:19:35;;;;;;;2.17;1.97;;;29.00;93.20;;;;;;5108746;27;20473;-87
2022/08/05 09:22:02;;;;;;;2.70;2.50;;;29.20;94.60;;;;;;5111913;27;20964;-86
2022/08/05 09:24:29;;;;;;;2.30;2.10;;;29.30;93.70;;;;;;5113201;27;20476;-87
2022/08/05 09:26:58;;;;;;;2.93;2.73;;;29.20;94.20;;;;;;5113723;27;20469;-87
2022/08/05 09:29:41;;;;;;;3.40;3.10;;;29.30;93.90;;;;;;5107540;27;20465;-87
2022/08/05 09:32:09;;;;;;;3.00;2.70;;;29.20;92.50;;;;;;5113042;27;20497;-87
2022/08/05 09:34:50;;;;;;;2.90;2.70;;;29.30;92.90;;;;;;5112715;27;20470;-87
2022/08/05 09:37:17;;;;;;;2.70;2.53;;;29.40;90.90;;;;;;5110413;27;20477;-87
2022/08/05 09:39:44;;;;;;;2.70;2.60;;;29.40;91.80;;;;;;5119403;27;20552;-87
2022/08/05 09:42:14;;;;;;;2.40;2.30;;;29.50;93.50;;;;;;5108545;27;20545;-87
2022/08/05 09:44:44;;;;;;;3.27;3.13;;;29.70;92.30;;;;;;5113651;27;20457;-87
2022/08/05 09:47:14;;;;;;;1.87;1.77;;;29.80;90.70;;;;;;5112056;27;21065;-85
2022/08/05 09:49:46;;;;;;;3.20;3.00;;;29.60;91.40;;;;;;5109043;27;20986;-85
2022/08/05 09:52:24;;;;;;;3.20;3.00;;;29.60;91.40;;;;;;5114426;27;20970;-84
2022/08/05 09:54:53;;;;;;;2.53;2.40;;;29.70;89.80;;;;;;5116993;27;20463;-85
2022/08/05 09:57:35;;;;;;;3.60;3.40;;;29.90;91.10;;;;;;5120838;27;21059;-85
2022/08/05 10:00:10;;;;;;;3.30;3.10;;;29.90;90.70;;;;;;5110915;27;20594;-85
2022/08/05 10:02:38;;;;;;;3.00;2.80;;;30.00;86.70;;;;;;5127750;27;20513;-85
2022/08/05 10:05:11;;;;;;;2.80;2.60;;;30.00;89.90;;;;;;5106726;27;20476;-85
2022/08/05 10:07:49;;;;;;;3.00;2.80;;;30.10;86.20;;;;;;5109006;27;20456;-85
2022/08/05 10:10:17;;;;;;;2.80;2.60;;;30.20;85.60;;;;;;5114744;27;20985;-85
2022/08/05 10:12:47;;;;;;;3.00;2.90;;;30.30;87.40;;;;;;5123150;27;20525;-85
2022/08/05 10:15:34;;;;;;;3.40;3.20;;;30.30;86.90;;;;;;5109928;27;20469;-85
2022/08/05 10:18:10;;;;;;;2.53;2.43;;;30.50;87.20;;;;;;5113917;27;21012;-85
2022/08/05 10:20:41;;;;;;;2.50;2.40;;;30.40;87.80;;;;;;5107132;28;20454;-85
2022/08/05 10:23:11;;;;;;;2.67;2.57;;;30.50;85.10;;;;;;5107315;27;21142;-85
2022/08/05 10:25:38;;;;;;;2.70;2.57;;;30.50;84.40;;;;;;5114236;27;20580;-85
2022/08/05 10:28:06;;;;;;;2.60;2.50;;;30.50;85.90;;;;;;5105171;27;20438;-85
2022/08/05 10:30:35;;;;;;;6.73;3.17;;;30.50;86.00;;;;;;5111449;27;20578;-85
2022/08/05 10:33:03;;;;;;;2.67;2.50;;;30.40;84.20;;;;;;5106522;27;20627;-85
2022/08/05 10:35:30;;;;;;;3.13;2.93;;;30.60;83.30;;;;;;5109175;27;20886;-86
2022/08/05 10:37:59;;;;;;;2.20;2.00;;;30.80;84.50;;;;;;5120174;27;20473;-86
2022/08/05 10:40:32;;;;;;;2.90;2.57;;;31.00;84.40;;;;;;5129136;27;20514;-86
2022/08/05 10:43:06;;;;;;;2.63;2.43;;;31.10;78.80;;;;;;5111819;27;20526;-86
2022/08/05 10:45:35;;;;;;;2.80;2.60;;;31.30;86.60;;;;;;5113166;27;20857;-86
2022/08/05 10:48:28;;;;;;;2.70;2.60;;;31.30;80.80;;;;;;5105762;27;20461;-86
2022/08/05 10:51:04;;;;;;;3.77;3.57;;;31.10;81.50;;;;;;5111011;27;21202;-86
2022/08/05 10:53:41;;;;;;;2.63;2.53;;;31.10;81.30;;;;;;5112717;27;20471;-87
2022/08/05 10:56:10;;;;;;;2.13;2.03;;;31.20;81.60;;;;;;5116184;27;20802;-86
2022/08/05 10:58:48;;;;;;;2.27;2.17;;;31.40;81.20;;;;;;5113795;27;20500;-87
2022/08/05 11:01:17;;;;;;;2.80;2.70;;;31.50;85.50;;;;;;5110390;27;20533;-87
2022/08/05 11:04:01;;;;;;;3.07;2.90;;;31.70;85.10;;;;;;5119717;27;20537;-86
2022/08/05 11:06:28;;;;;;;2.70;2.60;;;31.80;79.30;;;;;;5110820;27;20976;-88
2022/08/05 11:09:28;;;;;;;2.13;2.03;;;31.90;79.40;;;;;;5118706;27;20534;-88
2022/08/05 11:11:56;;;;;;;2.37;2.17;;;32.00;76.20;;;;;;5113133;27;20466;-88
2022/08/05 11:14:26;;;;;;;2.70;2.50;;;31.90;77.20;;;;;;5111738;27;20458;-88
2022/08/05 11:17:33;;;;;;;3.07;2.90;;;32.00;76.60;;;;;;5110829;27;20459;-88
2022/08/05 11:20:01;;;;;;;3.03;2.90;;;31.70;80.90;;;;;;5107463;27;20478;-89
2022/08/05 11:22:47;;;;;;;2.17;2.00;;;32.20;78.60;;;;;;5101094;27;20472;-89
2022/08/05 11:25:30;;;;;;;2.23;2.13;;;32.30;77.70;;;;;;5108143;27;21052;-89
2022/08/05 11:28:13;;;;;;;1.70;1.63;;;32.30;80.30;;;;;;5103884;27;20458;-88
2022/08/05 11:31:13;;;;;;;2.37;2.27;;;32.40;70.90;;;;;;5105995;27;20466;-89
2022/08/05 11:33:54;;;;;;;1.63;1.57;;;32.30;72.00;;;;;;5109675;27;20465;-89
2022/08/05 11:36:51;;;;;;;1.80;1.70;;;32.60;71.60;;;;;;5105412;27;21051;-89
2022/08/05 11:39:50;;;;;;;2.33;2.23;;;32.40;68.40;;;;;;5105115;27;20497;-89
2022/08/05 11:42:23;;;;;;;2.13;2.03;;;32.70;73.40;;;;;;5106346;27;20454;-89
2022/08/05 11:44:51;;;;;;;2.20;2.10;;;32.80;69.90;;;;;;5108379;27;20462;-89
2022/08/05 11:47:22;;;;;;;2.40;2.30;;;33.20;70.30;;;;;;5104868;28;20510;-89
2022/08/05 11:49:57;;;;;;;2.23;2.13;;;33.20;69.90;;;;;;5113279;27;20495;-89
2022/08/05 11:52:25;;;;;;;2.10;2.00;;;33.20;70.20;;;;;;5110803;27;21351;-89
2022/08/05 11:54:52;;;;;;;2.00;1.90;;;33.10;70.20;;;;;;5111921;27;20998;-89
2022/08/05 11:57:20;;;;;;;2.30;2.20;;;33.20;71.30;;;;;;5103088;27;20450;-90
2022/08/05 11:59:47;;;;;;;1.60;1.50;;;33.20;68.50;;;;;;5113535;27;20460;-89
2022/08/05 12:02:14;;;;;;;2.07;1.93;;;33.20;68.50;;;;;;5103059;27;20461;-90
2022/08/05 12:04:43;;;;;;;1.77;1.67;;;33.00;67.80;;;;;;5110273;27;20465;-90
2022/08/05 12:07:13;;;;;;;1.73;1.63;;;33.10;68.00;;;;;;5112697;27;20889;-90
2022/08/05 12:09:43;;;;;;;2.53;2.30;;;33.20;65.30;;;;;;5105595;27;20971;-89
2022/08/05 12:12:10;;;;;;;2.37;2.27;;;33.00;68.90;;;;;;5109984;27;20466;-90
2022/08/05 12:14:39;;;;;;;2.17;2.07;;;32.80;66.60;;;;;;5116120;27;20537;-90
2022/08/05 12:17:10;;;;;;;2.57;2.47;;;32.90;65.80;;;;;;5120664;27;21233;-90
2022/08/05 12:19:44;;;;;;;2.20;2.10;;;33.10;63.70;;;;;;5123310;27;20480;-90
2022/08/05 12:22:13;;;;;;;2.10;2.00;;;33.30;66.70;;;;;;5105587;27;20518;-90
2022/08/05 12:24:42;;;;;;;2.47;1.93;;;33.20;67.90;;;;;;5113181;27;21198;-90
2022/08/05 12:27:09;;;;;;;2.47;2.37;;;33.20;66.70;;;;;;5109364;27;20545;-90
2022/08/05 12:29:37;;;;;;;2.17;2.00;;;33.40;65.90;;;;;;5112668;27;20453;-91
2022/08/05 12:32:06;;;;;;;2.60;1.70;;;33.30;64.80;;;;;;5111511;28;20461;-90
2022/08/05 12:34:36;;;;;;;2.47;2.37;;;33.40;67.10;;;;;;5110629;27;20852;-91
2022/08/05 12:37:10;;;;;;;2.33;2.23;;;33.40;63.50;;;;;;5110096;28;20458;-90
2022/08/05 12:39:39;;;;;;;3.00;2.77;;;33.40;64.90;;;;;;5110883;28;22403;-89
2022/08/05 12:42:13;;;;;;;2.07;1.90;;;33.50;63.20;;;;;;5106240;28;20466;-91
2022/08/05 12:44:41;;;;;;;2.13;2.03;;;33.70;62.90;;;;;;5112443;28;20467;-91
2022/08/05 12:47:08;;;;;;;1.73;1.63;;;33.80;62.60;;;;;;5104048;28;20956;-91
2022/08/05 12:49:43;;;;;;;3.80;3.60;;;33.50;63.40;;;;;;5117876;27;20461;-90
2022/08/05 12:52:14;;;;;;;1.90;1.80;;;33.40;62.90;;;;;;5121861;27;20448;-90
2022/08/05 12:54:44;;;;;;;2.70;2.50;;;33.50;65.40;;;;;;5110633;27;20545;-91
2022/08/05 12:57:11;;;;;;;6.87;2.87;;;33.70;64.70;;;;;;5107157;28;20461;-91
2022/08/05 12:59:46;;;;;;;2.50;2.30;;;33.80;61.40;;;;;;5111644;27;21070;-91
2022/08/05 13:02:18;;;;;;;2.83;2.50;;;34.10;64.80;;;;;;5111709;27;20472;-91
2022/08/05 13:04:46;;;;;;;2.57;2.47;;;34.00;64.00;;;;;;5126895;27;20453;-91
2022/08/05 13:07:14;;;;;;;2.13;2.03;;;34.10;64.10;;;;;;5121762;27;21039;-91